Weather History for Louisa, VA

Change the Weather History Date:

Saturday, March 15, 2014

  Actual Average (KCHO) Record (KCHO)
Temperature  
Mean Temperature 56 °F 46 °F  
Max Temperature 69 °F 57 °F 86 °F (1990)
Min Temperature 42 °F 34 °F 10 °F (1993)
Degree Days  
Heating Degree Days 10 19  
Month to date heating degree days 324  
Since 1 July heating degree days 3736  
Cooling Degree Days 0 0  
Month to date cooling degree days 0  
Year to date cooling degree days 0  
Growing Degree Days 6 (Base 50)    
Moisture  
Dew Point 25 °F    
Average Humidity 32    
Maximum Humidity 46    
Minimum Humidity 18    
Precipitation  
Precipitation 0.00 in 0.13 in 1.00 in (1967)
Month to date precipitation 1.57  
Year to date precipitation 7.04  
Sea Level Pressure  
Sea Level Pressure 29.91 in    
Wind  
Wind Speed 8 mph (WSW)    
Max Wind Speed 21 mph    
Max Gust Speed 28 mph    
Visibility 10 miles    
Events      
T = Trace of Precipitation, MM = Missing Value Source: NWS Daily Summary

Daily Weather History Graph

Daily Weather History Graph

Search for Another Location

Airport:

Trip Planner

Search our weather history database for the weather conditions in past years. The results will help you decide how hot, cold, wet, or windy it might be!

Date:

Astronomy

Mar. 15, 2014 Rise Set
Actual Time 7:23 AM EDT 7:19 PM EDT
Civil Twilight 6:56 AM EDT 7:45 PM EDT
Nautical Twilight 6:26 AM EDT 8:15 PM EDT
Astronomical Twilight 5:55 AM EDT 8:46 PM EDT
Moon 6:36 PM EDT (3/15) 6:33 AM EDT (3/15)
Length of Visible Light 12h 48m
Length of Day
11h 56m
Waxing Gibbous, 99% of the Moon is Illuminated
Mar 15
Waxing Gibbous
Mar 16
Full
Mar 23
Last Quarter
Mar 30
New
Apr 7
First Quarter

Hourly Weather History & Observations

Time (EDT) Temp. Windchill Dew Point Humidity Pressure Visibility Wind Dir Wind Speed Gust Speed Precip Events Conditions
12:15 AM 51.8 °F - 19.4 °F 28% 29.93 in 10.0 mi South 9.2 mph - N/A   Clear
12:35 AM 51.8 °F - 19.4 °F 28% 29.92 in 10.0 mi SSW 5.8 mph - N/A   Clear
12:55 AM 51.8 °F - 19.4 °F 28% 29.91 in 10.0 mi SSW 6.9 mph - N/A   Clear
1:15 AM 51.8 °F - 19.4 °F 28% 29.91 in 10.0 mi SSW 10.4 mph 17.3 mph N/A   Clear
1:35 AM 51.8 °F - 21.2 °F 30% 29.90 in 10.0 mi SSW 5.8 mph - N/A   Mostly Cloudy
1:55 AM 53.6 °F - 21.2 °F 28% 29.90 in 10.0 mi SW 10.4 mph 19.6 mph N/A   Overcast
2:15 AM 51.8 °F - 21.2 °F 30% 29.90 in 10.0 mi SSW 8.1 mph 16.1 mph N/A   Mostly Cloudy
2:35 AM 51.8 °F - 21.2 °F 30% 29.90 in 10.0 mi SW 9.2 mph 17.3 mph N/A   Scattered Clouds
2:55 AM 51.8 °F - 21.2 °F 30% 29.90 in 10.0 mi SSW 9.2 mph - N/A   Scattered Clouds
3:15 AM 51.8 °F - 21.2 °F 30% 29.89 in 10.0 mi SSW 4.6 mph - N/A   Scattered Clouds
3:35 AM 50.0 °F - 21.2 °F 32% 29.88 in 10.0 mi South 5.8 mph - N/A   Scattered Clouds
3:55 AM 48.2 °F - 21.2 °F 34% 29.88 in 10.0 mi South 5.8 mph - N/A   Clear
4:15 AM 48.2 °F - 23.0 °F 37% 29.87 in 10.0 mi South 5.8 mph - N/A   Clear
4:35 AM 48.2 °F - 23.0 °F 37% 29.86 in 10.0 mi South 5.8 mph - N/A   Clear
4:55 AM 46.4 °F 44.3 °F 23.0 °F 40% 29.86 in 10.0 mi South 4.6 mph - N/A   Clear
5:15 AM 46.4 °F 42.9 °F 24.8 °F 43% 29.85 in 10.0 mi South 6.9 mph - N/A   Clear
5:35 AM 46.4 °F 43.5 °F 24.8 °F 43% 29.86 in 10.0 mi SSW 5.8 mph - N/A   Clear
5:55 AM 46.4 °F 43.5 °F 24.8 °F 43% 29.85 in 10.0 mi South 5.8 mph - N/A   Clear
6:15 AM 46.4 °F 42.9 °F 24.8 °F 43% 29.85 in 10.0 mi South 6.9 mph - N/A   Clear
6:35 AM 48.2 °F - 24.8 °F 40% 29.86 in 10.0 mi South 4.6 mph - N/A   Clear
6:55 AM 48.2 °F - 24.8 °F 40% 29.86 in 10.0 mi SSW 4.6 mph - N/A   Clear
7:15 AM 46.4 °F 43.5 °F 26.6 °F 46% 29.87 in 10.0 mi SSW 5.8 mph - N/A   Clear
7:35 AM 46.4 °F 44.3 °F 26.6 °F 46% 29.88 in 10.0 mi South 4.6 mph - N/A   Clear
7:55 AM 46.4 °F 42.9 °F 26.6 °F 46% 29.88 in 10.0 mi South 6.9 mph - N/A   Clear
8:15 AM 48.2 °F - 26.6 °F 43% 29.89 in 10.0 mi SSW 5.8 mph - N/A   Clear
8:35 AM 50.0 °F - 26.6 °F 40% 29.89 in 10.0 mi SSW 6.9 mph - N/A   Scattered Clouds
8:55 AM 50.0 °F - 28.4 °F 43% 29.89 in 10.0 mi SW 6.9 mph - N/A   Overcast
9:15 AM 51.8 °F - 28.4 °F 41% 29.90 in 10.0 mi SW 6.9 mph - N/A   Mostly Cloudy
9:35 AM 53.6 °F - 28.4 °F 38% 29.90 in 10.0 mi SSW 6.9 mph - N/A   Mostly Cloudy
9:55 AM 55.4 °F - 28.4 °F 36% 29.90 in 10.0 mi SW 6.9 mph 16.1 mph N/A   Overcast
10:15 AM 57.2 °F - 30.2 °F 36% 29.91 in 10.0 mi WSW 8.1 mph - N/A   Overcast
10:35 AM 57.2 °F - 30.2 °F 36% 29.91 in 10.0 mi WSW 9.2 mph - N/A   Overcast
10:55 AM 60.8 °F - 30.2 °F 31% 29.91 in 10.0 mi SW 8.1 mph 18.4 mph N/A   Mostly Cloudy
11:15 AM 60.8 °F - 32.0 °F 34% 29.91 in 10.0 mi SW 6.9 mph - N/A   Mostly Cloudy
11:35 AM 64.4 °F - 33.8 °F 32% 29.91 in 10.0 mi WSW 10.4 mph 16.1 mph N/A   Scattered Clouds
11:55 AM 64.4 °F - 33.8 °F 32% 29.90 in 10.0 mi WSW 5.8 mph 19.6 mph N/A   Clear
12:15 PM 66.2 °F - 33.8 °F 30% 29.90 in 10.0 mi West 10.4 mph 21.9 mph N/A   Clear
12:35 PM 64.4 °F - 32.0 °F 30% 29.90 in 10.0 mi WSW 8.1 mph 19.6 mph N/A   Scattered Clouds
12:55 PM 66.2 °F - 33.8 °F 30% 29.90 in 10.0 mi West 18.4 mph 26.5 mph N/A   Mostly Cloudy
1:15 PM 66.2 °F - 30.2 °F 26% 29.89 in 10.0 mi WSW 11.5 mph 20.7 mph N/A   Mostly Cloudy
1:35 PM 69.8 °F - 30.2 °F 23% 29.89 in 10.0 mi WSW 11.5 mph 21.9 mph N/A   Scattered Clouds
2:15 PM 69.8 °F - 28.4 °F 21% 29.88 in 10.0 mi West 17.3 mph 26.5 mph N/A   Clear
2:35 PM 69.8 °F - 28.4 °F 21% 29.87 in 10.0 mi West 16.1 mph 26.5 mph N/A   Clear
2:55 PM 69.8 °F - 28.4 °F 21% 29.87 in 10.0 mi West 13.8 mph 26.5 mph N/A   Clear
3:15 PM 69.8 °F - 28.4 °F 21% 29.87 in 10.0 mi WNW 12.7 mph 24.2 mph N/A   Clear
3:35 PM 69.8 °F - 24.8 °F 18% 29.87 in 10.0 mi WSW 18.4 mph 27.6 mph N/A   Clear
3:55 PM 69.8 °F - 26.6 °F 20% 29.87 in 10.0 mi West 20.7 mph 26.5 mph N/A   Clear
4:15 PM 69.8 °F - 24.8 °F 18% 29.87 in 10.0 mi WNW 15.0 mph 25.3 mph N/A   Clear
4:35 PM 69.8 °F - 24.8 °F 18% 29.87 in 10.0 mi WNW 15.0 mph 23.0 mph N/A   Clear
4:55 PM 69.8 °F - 26.6 °F 20% 29.88 in 10.0 mi West 19.6 mph 24.2 mph N/A   Clear
5:15 PM 69.8 °F - 24.8 °F 18% 29.88 in 10.0 mi West 15.0 mph 21.9 mph N/A   Clear
5:35 PM 69.8 °F - 24.8 °F 18% 29.88 in 10.0 mi West 15.0 mph 24.2 mph N/A   Clear
5:55 PM 68.0 °F - 26.6 °F 21% 29.89 in 10.0 mi West 12.7 mph 23.0 mph N/A   Clear
6:15 PM 66.2 °F - 24.8 °F 21% 29.90 in 10.0 mi West 11.5 mph 20.7 mph N/A   Clear
6:35 PM 66.2 °F - 26.6 °F 23% 29.91 in 10.0 mi West 6.9 mph - N/A   Clear
6:55 PM 64.4 °F - 24.8 °F 22% 29.92 in 10.0 mi West 6.9 mph - N/A   Clear
7:15 PM 62.6 °F - 21.2 °F 20% 29.93 in 10.0 mi West 8.1 mph - N/A   Clear
7:35 PM 60.8 °F - 21.2 °F 22% 29.94 in 10.0 mi West 5.8 mph - N/A   Clear
7:55 PM 60.8 °F - 21.2 °F 22% 29.94 in 10.0 mi West 6.9 mph - N/A   Clear
8:15 PM 57.2 °F - 21.2 °F 25% 29.95 in 10.0 mi WNW 4.6 mph - N/A   Clear
8:35 PM 51.8 °F - 24.8 °F 35% 29.96 in 10.0 mi Calm Calm - N/A   Clear
8:55 PM 48.2 °F - 26.6 °F 43% 29.98 in 10.0 mi Calm Calm - N/A   Clear
9:15 PM 50.0 °F - 23.0 °F 35% 29.99 in 10.0 mi WNW 6.9 mph - N/A   Clear
9:35 PM 51.8 °F - 24.8 °F 35% 30.00 in 10.0 mi WNW 5.8 mph - N/A   Clear
9:55 PM 48.2 °F - 24.8 °F 40% 30.01 in 10.0 mi NW 5.8 mph - N/A   Clear
10:15 PM 50.0 °F - 23.0 °F 35% 30.02 in 10.0 mi Calm Calm - N/A   Clear
10:35 PM 46.4 °F - 23.0 °F 40% 30.03 in 10.0 mi Calm Calm - N/A   Clear
10:55 PM 46.4 °F - 21.2 °F 37% 30.03 in 10.0 mi Calm Calm - N/A   Clear
11:15 PM 44.6 °F 43.1 °F 21.2 °F 39% 30.03 in 10.0 mi NW 3.5 mph - N/A   Clear
11:35 PM 42.8 °F 40.1 °F 23.0 °F 46% 30.03 in 10.0 mi WNW 4.6 mph - N/A   Clear
11:55 PM 50.0 °F - 21.2 °F 32% 30.03 in 10.0 mi NW 5.8 mph - N/A   Clear